createdAt,value
2019-05-20T00:00:28.139Z,89.34
2019-05-20T00:01:28.100Z,89.34
2019-05-20T00:02:28.640Z,89.64
2019-05-20T00:03:28.078Z,89.34
2019-05-20T00:04:28.061Z,89.54
2019-05-20T00:05:28.081Z,89.54
2019-05-20T00:06:28.044Z,89.44
2019-05-20T00:07:28.033Z,88.53
2019-05-20T00:08:28.049Z,88.63
2019-05-20T00:09:28.075Z,89.24
2019-05-20T00:10:28.013Z,89.34
2019-05-20T00:11:27.992Z,89.03
2019-05-20T00:12:27.979Z,88.22
2019-05-20T00:13:27.967Z,89.28
2019-05-20T00:14:27.968Z,89.24
2019-05-20T00:15:27.993Z,89.07
2019-05-20T00:16:27.927Z,89.38
2019-05-20T00:17:27.927Z,89.07
2019-05-20T00:18:27.926Z,89.48
2019-05-20T00:19:27.901Z,89.38
2019-05-20T00:20:27.902Z,89.79
2019-05-20T00:21:27.876Z,89.69
2019-05-20T00:22:27.905Z,89.48
2019-05-20T00:23:27.851Z,89.89
2019-05-20T00:24:27.876Z,89.79
2019-05-20T00:25:27.867Z,89.59
2019-05-20T00:26:27.822Z,89.89
2019-05-20T00:27:27.807Z,89.69
2019-05-20T00:28:27.805Z,89.89
2019-05-20T00:29:27.801Z,89.89
2019-05-20T00:30:27.794Z,89.28
2019-05-20T00:31:27.780Z,89.89
2019-05-20T00:32:40.197Z,89.89
2019-05-20T00:33:28.739Z,89.59
2019-05-20T00:34:35.112Z,89.79
2019-05-20T00:35:28.731Z,89.18
2019-05-20T00:36:27.703Z,89.28
2019-05-20T00:37:27.714Z,89.28
2019-05-20T00:38:27.687Z,89.59
2019-05-20T00:39:27.688Z,89.63
2019-05-20T00:40:27.697Z,90.03
2019-05-20T00:41:27.676Z,89.73
2019-05-20T00:42:27.679Z,90.24
2019-05-20T00:43:27.664Z,90.24
2019-05-20T00:44:27.623Z,89.73
2019-05-20T00:45:27.602Z,89.73
2019-05-20T00:46:27.621Z,90.24
2019-05-20T00:47:27.598Z,90.34
2019-05-20T00:48:27.577Z,90.14
2019-05-20T00:49:27.580Z,89.63
2019-05-20T00:50:27.546Z,89.83
2019-05-20T00:51:27.584Z,89.32
2019-05-20T00:52:27.540Z,89.83
2019-05-20T00:53:27.516Z,90.24
2019-05-20T00:54:27.523Z,89.97
2019-05-20T00:55:27.539Z,89.77
2019-05-20T00:56:27.481Z,90.18
2019-05-20T00:57:27.470Z,90.18
2019-05-20T00:58:27.493Z,89.97
2019-05-20T00:59:27.449Z,89.87
2019-05-20T01:00:27.458Z,89.67
2019-05-20T01:01:27.462Z,90.18
2019-05-20T01:02:27.414Z,90.48
2019-05-20T01:03:27.403Z,90.28
2019-05-20T01:04:27.397Z,89.97
2019-05-20T01:05:27.379Z,90.59
2019-05-20T01:06:27.389Z,90.08
2019-05-20T01:07:27.373Z,90.28
2019-05-20T01:08:27.350Z,89.77
2019-05-20T01:09:27.353Z,90.28
2019-05-20T01:10:27.338Z,90.79
2019-05-20T01:11:27.347Z,90.79
2019-05-20T01:12:27.314Z,90.48
2019-05-20T01:13:27.308Z,90.69
2019-05-20T01:14:27.277Z,90.83
2019-05-20T01:15:27.273Z,90.79
2019-05-20T01:16:27.272Z,90.79
2019-05-20T01:17:27.242Z,91.09
2019-05-20T01:18:27.252Z,90.63
2019-05-20T01:19:27.222Z,90.89
2019-05-20T01:20:27.212Z,90.59
2019-05-20T01:21:27.231Z,90.79
2019-05-20T01:22:27.210Z,90.73
2019-05-20T01:23:27.180Z,90.22
2019-05-20T01:24:27.186Z,90.22
2019-05-20T01:25:27.170Z,90.42
2019-05-20T01:26:27.161Z,90.42
2019-05-20T01:27:27.153Z,90.83
2019-05-20T01:28:27.124Z,90.73
2019-05-20T01:29:27.140Z,90.73
2019-05-20T01:30:27.100Z,90.83
2019-05-20T01:31:27.118Z,90.63
2019-05-20T01:32:27.099Z,90.98
2019-05-20T01:33:27.068Z,90.47
2019-05-20T01:34:27.055Z,90.47
2019-05-20T01:35:27.050Z,90.47
2019-05-20T01:36:27.051Z,90.47
2019-05-20T01:37:27.037Z,90.77
2019-05-20T01:38:27.012Z,90.98
2019-05-20T01:39:27.023Z,90.88
2019-05-20T01:40:27.003Z,90.88
2019-05-20T01:41:26.989Z,90.77
2019-05-20T01:42:26.989Z,91.08
2019-05-20T01:43:26.957Z,90.67
2019-05-20T01:44:26.939Z,90.67
2019-05-20T01:45:26.932Z,90.06
2019-05-20T01:46:26.919Z,90.26
2019-05-20T01:47:26.945Z,89.86
2019-05-20T01:48:26.919Z,89.75
2019-05-20T01:49:26.901Z,89.86
2019-05-20T01:50:26.882Z,89.96
2019-05-20T01:51:26.860Z,90.06
2019-05-20T01:52:26.876Z,90.20
2019-05-20T01:53:26.849Z,89.79
2019-05-20T01:54:26.853Z,89.90
2019-05-20T01:55:26.815Z,90.20
2019-05-20T01:56:26.805Z,90.61
2019-05-20T01:57:26.808Z,90.61
2019-05-20T01:58:26.794Z,90.71
2019-05-20T01:59:26.786Z,90.57
2019-05-20T02:00:26.760Z,90.81
2019-05-20T02:01:26.750Z,90.51
2019-05-20T02:02:26.751Z,90.51
2019-05-20T02:03:31.937Z,90.51
2019-05-20T02:04:27.706Z,90.41
2019-05-20T02:05:26.744Z,90.71
2019-05-20T02:06:26.699Z,90.61
2019-05-20T02:07:26.710Z,90.81
2019-05-20T02:08:26.668Z,90.71
2019-05-20T02:09:26.675Z,90.81
2019-05-20T02:10:26.648Z,90.61
2019-05-20T02:11:26.637Z,91.02
2019-05-20T02:12:26.624Z,90.92
2019-05-20T02:13:26.649Z,91.22
2019-05-20T02:14:26.604Z,90.81
2019-05-20T02:15:26.640Z,91.12
2019-05-20T02:16:26.610Z,90.92
2019-05-20T02:17:26.595Z,91.02
2019-05-20T02:18:26.615Z,91.02
2019-05-20T02:19:26.551Z,90.92
2019-05-20T02:20:26.540Z,91.53
2019-05-20T02:21:26.527Z,91.74
2019-05-20T02:22:26.520Z,91.53
2019-05-20T02:23:26.526Z,91.63
2019-05-20T02:24:26.511Z,91.47
2019-05-20T02:25:26.493Z,91.22
2019-05-20T02:26:26.473Z,91.33
2019-05-20T02:27:26.463Z,91.53
2019-05-20T02:28:26.488Z,91.12
2019-05-20T02:29:26.455Z,91.43
2019-05-20T02:30:26.437Z,91.43
2019-05-20T02:31:26.420Z,91.37
2019-05-20T02:32:26.422Z,91.06
2019-05-20T02:33:26.424Z,90.96
2019-05-20T02:34:26.401Z,90.75
2019-05-20T02:35:26.392Z,90.92
2019-05-20T02:36:26.380Z,91.06
2019-05-20T02:37:26.352Z,90.66
2019-05-20T02:38:26.340Z,90.96
2019-05-20T02:39:26.897Z,90.86
2019-05-20T02:40:26.329Z,90.96
2019-05-20T02:41:26.336Z,91.27
2019-05-20T02:42:26.295Z,91.16
2019-05-20T02:43:26.279Z,90.75
2019-05-20T02:44:26.296Z,90.96
2019-05-20T02:45:26.263Z,90.96
2019-05-20T02:46:26.277Z,91.16
2019-05-20T02:47:26.278Z,91.06
2019-05-20T02:48:26.221Z,90.96
2019-05-20T02:49:26.234Z,90.86
2019-05-20T02:50:26.206Z,91.27
2019-05-20T02:51:26.192Z,90.86
2019-05-20T02:52:26.189Z,90.86
2019-05-20T02:53:26.167Z,91.06
2019-05-20T02:54:26.195Z,91.37
2019-05-20T02:55:26.174Z,91.37
2019-05-20T02:56:26.136Z,91.37
2019-05-20T02:57:26.123Z,91.27
2019-05-20T02:58:26.157Z,91.57
2019-05-20T02:59:26.130Z,91.78
2019-05-20T03:00:26.125Z,91.67
2019-05-20T03:01:26.111Z,91.37
2019-05-20T03:02:26.072Z,91.67
2019-05-20T03:03:26.062Z,91.47
2019-05-20T03:04:26.064Z,91.61
2019-05-20T03:05:26.073Z,91.06
2019-05-20T03:06:26.087Z,91.37
2019-05-20T03:07:26.016Z,91.57
2019-05-20T03:08:26.018Z,91.88
2019-05-20T03:09:26.009Z,91.37
2019-05-20T03:10:25.982Z,91.57
2019-05-20T03:11:25.971Z,91.47
2019-05-20T03:12:25.963Z,91.27
2019-05-20T03:13:25.954Z,90.96
2019-05-20T03:14:25.979Z,91.06
2019-05-20T03:15:25.946Z,91.16
2019-05-20T03:16:25.942Z,91.00
2019-05-20T03:17:25.919Z,90.90
2019-05-20T03:18:25.898Z,90.90
2019-05-20T03:19:25.900Z,90.59
2019-05-20T03:20:25.920Z,90.70
2019-05-20T03:21:25.879Z,90.90
2019-05-20T03:22:25.877Z,90.70
2019-05-20T03:23:25.866Z,90.90
2019-05-20T03:24:25.845Z,91.20
2019-05-20T03:25:25.854Z,91.72
2019-05-20T03:26:25.802Z,91.72
2019-05-20T03:27:25.809Z,91.52
2019-05-20T03:28:25.780Z,91.52
2019-05-20T03:29:25.842Z,91.72
2019-05-20T03:30:25.815Z,91.31
2019-05-20T03:31:25.784Z,91.61
2019-05-20T03:32:25.733Z,91.61
2019-05-20T03:33:25.747Z,91.72
2019-05-20T03:34:45.198Z,91.82
2019-05-20T03:35:26.726Z,91.31
2019-05-20T03:36:25.717Z,91.92
2019-05-20T03:37:25.680Z,91.82
2019-05-20T03:38:25.674Z,91.72
2019-05-20T03:39:25.697Z,91.86
2019-05-20T03:40:25.681Z,92.17
2019-05-20T03:41:25.639Z,92.13
2019-05-20T03:42:25.646Z,91.82
2019-05-20T03:43:25.635Z,92.02
2019-05-20T03:44:25.625Z,92.33
2019-05-20T03:45:25.602Z,91.92
2019-05-20T03:46:25.630Z,91.82
2019-05-20T03:47:25.576Z,91.72
2019-05-20T03:48:25.582Z,91.72
2019-05-20T03:49:25.563Z,91.61
2019-05-20T03:50:25.561Z,91.86
2019-05-20T03:51:25.553Z,92.17
2019-05-20T03:52:25.519Z,91.76
2019-05-20T03:53:25.517Z,91.86
2019-05-20T03:54:25.575Z,91.96
2019-05-20T03:55:25.487Z,92.27
2019-05-20T03:56:25.503Z,92.27
2019-05-20T03:57:25.472Z,92.17
2019-05-20T03:58:25.451Z,91.66
2019-05-20T03:59:25.528Z,91.46
2019-05-20T04:00:25.447Z,92.37
2019-05-20T04:01:25.439Z,92.33
2019-05-20T04:02:25.432Z,91.96
2019-05-20T04:03:25.405Z,91.76
2019-05-20T04:04:25.556Z,92.07
2019-05-20T04:05:25.401Z,92.17
2019-05-20T04:06:25.401Z,92.17
2019-05-20T04:07:25.350Z,92.17
2019-05-20T04:08:25.432Z,91.66
2019-05-20T04:09:25.369Z,91.86
2019-05-20T04:10:25.337Z,91.86
2019-05-20T04:11:25.330Z,91.96
2019-05-20T04:12:25.297Z,92.07
2019-05-20T04:13:25.300Z,92.07
2019-05-20T04:14:25.291Z,91.86
2019-05-20T04:15:25.290Z,91.66
2019-05-20T04:16:25.296Z,91.86
2019-05-20T04:17:25.244Z,92.07
2019-05-20T04:18:25.233Z,92.17
2019-05-20T04:19:25.238Z,92.07
2019-05-20T04:20:25.214Z,91.96
2019-05-20T04:21:25.221Z,92.17
2019-05-20T04:22:25.212Z,92.13
2019-05-20T04:23:25.223Z,92.07
2019-05-20T04:24:25.167Z,91.72
2019-05-20T04:25:25.156Z,91.72
2019-05-20T04:26:25.165Z,92.17
2019-05-20T04:27:25.159Z,92.58
2019-05-20T04:28:25.120Z,92.64
2019-05-20T04:29:25.138Z,92.23
2019-05-20T04:30:25.104Z,92.64
2019-05-20T04:31:25.094Z,92.54
2019-05-20T04:32:25.101Z,92.43
2019-05-20T04:33:25.096Z,93.76
2019-05-20T04:34:25.051Z,93.45
2019-05-20T04:35:25.059Z,93.55
2019-05-20T04:36:25.054Z,93.05
2019-05-20T04:37:25.074Z,93.25
2019-05-20T04:38:25.037Z,92.94
2019-05-20T04:39:25.022Z,93.05
2019-05-20T04:40:24.999Z,92.94
2019-05-20T04:41:24.994Z,93.05
2019-05-20T04:42:24.970Z,93.62
2019-05-20T04:43:24.980Z,92.54
2019-05-20T04:44:24.947Z,92.19
2019-05-20T04:45:24.961Z,91.98
2019-05-20T04:46:24.924Z,92.59
2019-05-20T04:47:24.935Z,92.49
2019-05-20T04:48:24.926Z,92.35
2019-05-20T04:49:24.913Z,92.39
2019-05-20T04:50:24.893Z,92.65
2019-05-20T04:51:24.886Z,92.14
2019-05-20T04:52:24.903Z,92.29
2019-05-20T04:53:24.867Z,93.77
2019-05-20T04:54:24.860Z,93.77
2019-05-20T04:55:24.829Z,91.94
2019-05-20T04:56:28.389Z,91.94
2019-05-20T04:57:24.842Z,91.83
2019-05-20T04:58:24.813Z,91.94
2019-05-20T04:59:24.785Z,92.04
2019-05-20T05:00:24.784Z,91.63
2019-05-20T05:01:24.771Z,91.74
2019-05-20T05:02:24.772Z,92.00
2019-05-20T05:03:24.781Z,92.14
2019-05-20T05:04:24.739Z,92.00
2019-05-20T05:05:37.288Z,91.89
2019-05-20T05:06:25.709Z,92.00
2019-05-20T05:07:24.701Z,91.79
2019-05-20T05:08:24.719Z,92.00
2019-05-20T05:09:24.674Z,92.00
2019-05-20T05:10:24.663Z,92.20
2019-05-20T05:11:24.679Z,92.00
2019-05-20T05:12:24.657Z,91.85
2019-05-20T05:13:24.657Z,93.18
2019-05-20T05:14:24.653Z,93.59
2019-05-20T05:15:24.628Z,92.16
2019-05-20T05:16:24.603Z,92.46
2019-05-20T05:17:24.586Z,92.83
2019-05-20T05:18:24.569Z,93.44
2019-05-20T05:19:24.606Z,93.44
2019-05-20T05:20:24.556Z,93.13
2019-05-20T05:21:24.551Z,92.72
2019-05-20T05:22:24.564Z,92.52
2019-05-20T05:23:24.540Z,92.27
2019-05-20T05:24:24.538Z,92.52
2019-05-20T05:25:24.512Z,92.38
2019-05-20T05:26:24.486Z,92.27
2019-05-20T05:27:24.508Z,93.29
2019-05-20T05:28:24.539Z,92.79
2019-05-20T05:29:24.467Z,93.05
2019-05-20T05:30:24.458Z,93.15
2019-05-20T05:31:24.446Z,92.84
2019-05-20T05:32:24.422Z,93.25
2019-05-20T05:33:24.420Z,91.83
2019-05-20T05:34:24.423Z,91.38
2019-05-20T05:35:24.382Z,91.38
2019-05-20T05:36:24.385Z,91.48
2019-05-20T05:37:24.365Z,91.38
2019-05-20T05:38:24.372Z,91.74
2019-05-20T05:39:24.356Z,90.52
2019-05-20T05:40:24.324Z,90.52
2019-05-20T05:41:24.343Z,90.62
2019-05-20T05:42:24.307Z,90.42
2019-05-20T05:43:24.297Z,90.62
2019-05-20T05:44:24.303Z,91.39
2019-05-20T05:45:24.269Z,91.80
2019-05-20T05:46:24.264Z,90.99
2019-05-20T05:47:24.271Z,90.48
2019-05-20T05:48:24.238Z,89.76
2019-05-20T05:49:24.250Z,89.31
2019-05-20T05:50:24.212Z,90.13
2019-05-20T05:51:24.202Z,91.25
2019-05-20T05:52:24.212Z,91.30
2019-05-20T05:53:24.185Z,90.09
2019-05-20T05:54:24.221Z,89.37
2019-05-20T05:55:24.161Z,88.76
2019-05-20T05:56:24.158Z,89.48
2019-05-20T05:57:24.151Z,89.48
2019-05-20T05:58:24.154Z,89.54
2019-05-20T05:59:24.132Z,89.84
2019-05-20T06:00:24.175Z,89.13
2019-05-20T06:01:24.107Z,89.03
2019-05-20T06:02:24.104Z,88.93
2019-05-20T06:03:24.090Z,86.29
2019-05-20T06:04:24.061Z,86.39
2019-05-20T06:05:24.074Z,86.69
2019-05-20T06:06:24.059Z,86.29
2019-05-20T06:07:24.034Z,86.55
2019-05-20T06:08:24.024Z,87.46
2019-05-20T06:09:24.019Z,87.06
2019-05-20T06:10:24.013Z,84.52
2019-05-20T06:11:23.990Z,84.52
2019-05-20T06:12:24.058Z,84.63
2019-05-20T06:13:23.969Z,84.01
2019-05-20T06:14:23.959Z,84.28
2019-05-20T06:15:23.971Z,84.08
2019-05-20T06:16:36.139Z,84.69
2019-05-20T06:17:24.917Z,85.19
2019-05-20T06:18:23.939Z,84.58
2019-05-20T06:19:23.913Z,84.34
2019-05-20T06:20:23.913Z,84.44
2019-05-20T06:21:23.891Z,84.55
2019-05-20T06:22:23.933Z,84.55
2019-05-20T06:23:23.871Z,87.08
2019-05-20T06:24:23.855Z,86.83
2019-05-20T06:25:23.871Z,84.30
2019-05-20T06:26:23.823Z,83.90
2019-05-20T06:27:23.852Z,83.39
2019-05-20T06:28:23.803Z,82.78
2019-05-20T06:29:23.792Z,82.38
2019-05-20T06:30:23.802Z,82.68
2019-05-20T06:31:23.783Z,82.28
2019-05-20T06:32:23.773Z,82.48
2019-05-20T06:33:23.762Z,82.68
2019-05-20T06:34:23.764Z,81.67
2019-05-20T06:35:23.808Z,81.26
2019-05-20T06:36:26.864Z,81.83
2019-05-20T06:37:23.700Z,82.44
2019-05-20T06:38:23.710Z,82.34
2019-05-20T06:39:23.740Z,81.93
2019-05-20T06:40:23.664Z,82.68
2019-05-20T06:41:23.700Z,82.64
2019-05-20T06:42:23.647Z,82.84
2019-05-20T06:43:23.634Z,82.84
2019-05-20T06:44:23.656Z,84.16
2019-05-20T06:45:23.646Z,84.06
2019-05-20T06:46:23.626Z,83.96
2019-05-20T06:47:23.597Z,83.86
2019-05-20T06:48:23.579Z,84.56
2019-05-20T06:49:23.584Z,84.47
2019-05-20T06:50:23.560Z,83.86
2019-05-20T06:51:23.581Z,82.54
2019-05-20T06:52:35.480Z,81.83
2019-05-20T06:53:24.528Z,81.43
2019-05-20T06:54:23.524Z,81.23
2019-05-20T06:55:23.505Z,82.24
2019-05-20T06:56:23.552Z,82.84
2019-05-20T06:57:23.994Z,82.84
2019-05-20T06:58:23.474Z,83.92
2019-05-20T06:59:23.482Z,83.21
2019-05-20T07:00:23.459Z,83.61
2019-05-20T07:01:23.456Z,82.70
2019-05-20T07:02:23.427Z,82.70
2019-05-20T07:03:23.411Z,83.01
2019-05-20T07:04:23.413Z,81.90
2019-05-20T07:05:23.405Z,82.20
2019-05-20T07:06:23.409Z,82.60
2019-05-20T07:07:23.377Z,82.81
2019-05-20T07:08:23.378Z,82.40
2019-05-20T07:09:23.354Z,82.60
2019-05-20T07:10:23.354Z,82.40
2019-05-20T07:11:23.353Z,82.70
2019-05-20T07:12:38.531Z,82.56
2019-05-20T07:13:24.300Z,82.70
2019-05-20T07:14:23.329Z,82.56
2019-05-20T07:15:23.286Z,81.79
2019-05-20T07:16:23.289Z,80.84
2019-05-20T07:17:23.301Z,79.33
2019-05-20T07:18:23.251Z,79.63
2019-05-20T07:19:23.247Z,79.83
2019-05-20T07:20:23.251Z,80.54
2019-05-20T07:21:23.272Z,81.55
2019-05-20T07:22:23.192Z,82.06
2019-05-20T07:23:23.191Z,81.62
2019-05-20T07:24:23.195Z,81.01
2019-05-20T07:25:23.193Z,81.01
2019-05-20T07:26:23.167Z,80.71
2019-05-20T07:27:23.197Z,80.50
2019-05-20T07:28:23.170Z,80.60
2019-05-20T07:29:23.129Z,80.00
2019-05-20T07:30:23.126Z,79.39
2019-05-20T07:31:23.113Z,79.49
2019-05-20T07:32:23.135Z,78.78
2019-05-20T07:33:23.098Z,78.55
2019-05-20T07:34:23.084Z,79.05
2019-05-20T07:35:30.204Z,80.46
2019-05-20T07:36:24.065Z,80.26
2019-05-20T07:37:23.069Z,80.06
2019-05-20T07:38:23.036Z,80.26
2019-05-20T07:39:23.023Z,80.16
2019-05-20T07:40:23.007Z,78.75
2019-05-20T07:41:22.999Z,77.73
2019-05-20T07:42:23.010Z,77.73
2019-05-20T07:43:22.992Z,77.73
2019-05-20T07:44:22.958Z,78.14
2019-05-20T07:45:22.973Z,78.30
2019-05-20T07:46:22.941Z,77.19
2019-05-20T07:47:22.931Z,76.59
2019-05-20T07:48:23.155Z,75.88
2019-05-20T07:49:22.924Z,76.69
2019-05-20T07:50:22.957Z,74.77
2019-05-20T07:51:22.887Z,75.17
2019-05-20T07:52:22.886Z,74.87
2019-05-20T07:53:22.904Z,76.69
2019-05-20T07:54:22.855Z,77.29
2019-05-20T07:55:22.841Z,76.59
2019-05-20T07:56:22.829Z,77.09
2019-05-20T07:57:22.831Z,77.06
2019-05-20T07:58:22.842Z,76.45
2019-05-20T07:59:22.963Z,77.66
2019-05-20T08:00:22.784Z,78.57
2019-05-20T08:01:22.784Z,78.53
2019-05-20T08:02:22.767Z,78.84
2019-05-20T08:03:22.770Z,78.63
2019-05-20T08:04:22.767Z,78.94
2019-05-20T08:05:22.729Z,77.89
2019-05-20T08:06:22.791Z,79.10
2019-05-20T08:07:29.704Z,78.19
2019-05-20T08:08:23.733Z,78.46
2019-05-20T08:09:22.710Z,77.49
2019-05-20T08:10:22.684Z,74.43
2019-05-20T08:11:22.685Z,74.66
2019-05-20T08:12:22.687Z,75.43
2019-05-20T08:13:22.670Z,73.35
2019-05-20T08:14:22.666Z,75.13
2019-05-20T08:15:22.639Z,74.83
2019-05-20T08:16:22.619Z,76.14
2019-05-20T08:17:22.612Z,76.44
2019-05-20T08:18:22.599Z,75.94
2019-05-20T08:19:22.632Z,76.14
2019-05-20T08:20:22.564Z,75.43
2019-05-20T08:21:22.587Z,74.93
2019-05-20T08:22:22.545Z,74.73
2019-05-20T08:23:22.551Z,74.83
2019-05-20T08:24:22.551Z,75.23
2019-05-20T08:25:22.510Z,75.13
2019-05-20T08:26:22.493Z,75.03
2019-05-20T08:27:22.488Z,74.83
2019-05-20T08:28:22.513Z,75.23
2019-05-20T08:29:22.482Z,75.84
2019-05-20T08:30:22.481Z,76.14
2019-05-20T08:31:22.514Z,75.43
2019-05-20T08:32:22.459Z,76.44
2019-05-20T08:33:22.426Z,75.94
2019-05-20T08:34:22.428Z,76.34
2019-05-20T08:35:23.807Z,77.04
2019-05-20T08:36:22.390Z,76.44
2019-05-20T08:37:22.410Z,76.54
2019-05-20T08:38:22.380Z,75.74
2019-05-20T08:39:22.387Z,76.34
2019-05-20T08:40:22.344Z,76.04
2019-05-20T08:41:22.461Z,76.04
2019-05-20T08:42:22.330Z,76.84
2019-05-20T08:43:22.341Z,76.34
2019-05-20T08:44:22.344Z,77.31
2019-05-20T08:45:22.285Z,76.44
2019-05-20T08:46:22.275Z,76.31
2019-05-20T08:47:22.293Z,76.31
2019-05-20T08:48:22.285Z,76.40
2019-05-20T08:49:22.276Z,73.08
2019-05-20T08:50:22.234Z,74.69
2019-05-20T08:51:22.246Z,77.58
2019-05-20T08:52:22.214Z,75.70
2019-05-20T08:53:22.199Z,75.76
2019-05-20T08:54:22.253Z,76.87
2019-05-20T08:55:22.178Z,76.34
2019-05-20T08:56:22.180Z,73.52
2019-05-20T08:57:22.167Z,73.52
2019-05-20T08:58:22.159Z,72.81
2019-05-20T08:59:22.153Z,72.37
2019-05-20T09:00:24.125Z,72.97
2019-05-20T09:01:22.117Z,74.38
2019-05-20T09:02:22.120Z,72.97
2019-05-20T09:03:22.104Z,75.05
2019-05-20T09:04:22.099Z,75.46
2019-05-20T09:05:22.089Z,74.25
2019-05-20T09:06:22.055Z,74.21
2019-05-20T09:07:22.049Z,75.32
2019-05-20T09:08:22.040Z,74.21
2019-05-20T09:09:22.081Z,74.08
2019-05-20T09:10:22.020Z,71.77
2019-05-20T09:11:22.045Z,70.73
2019-05-20T09:12:21.999Z,72.44
2019-05-20T09:13:21.981Z,72.74
2019-05-20T09:14:21.993Z,73.10
2019-05-20T09:15:21.959Z,70.50
2019-05-20T09:16:21.975Z,69.49
2019-05-20T09:17:21.938Z,70.86
2019-05-20T09:18:21.927Z,70.63
2019-05-20T09:19:21.911Z,69.92
2019-05-20T09:20:21.940Z,70.43
2019-05-20T09:21:21.921Z,68.89
2019-05-20T09:22:21.882Z,68.49
2019-05-20T09:23:21.870Z,69.89
2019-05-20T09:24:21.883Z,68.15
2019-05-20T09:25:21.851Z,67.58
2019-05-20T09:26:21.852Z,67.35
2019-05-20T09:27:21.829Z,64.78
2019-05-20T09:28:21.817Z,64.95
2019-05-20T09:29:21.800Z,64.25
2019-05-20T09:30:21.925Z,65.15
2019-05-20T09:31:21.799Z,67.45
2019-05-20T09:32:21.781Z,68.26
2019-05-20T09:33:21.764Z,67.85
2019-05-20T09:34:21.749Z,68.52
2019-05-20T09:35:21.742Z,67.62
2019-05-20T09:36:21.752Z,67.12
2019-05-20T09:37:21.722Z,67.19
2019-05-20T09:38:21.729Z,65.28
2019-05-20T09:39:21.704Z,68.09
2019-05-20T09:40:21.692Z,65.69
2019-05-20T09:41:21.704Z,66.25
2019-05-20T09:42:21.677Z,68.16
2019-05-20T09:43:21.663Z,65.66
2019-05-20T09:44:21.663Z,65.05
2019-05-20T09:45:21.637Z,65.16
2019-05-20T09:46:21.638Z,65.95
2019-05-20T09:47:21.672Z,65.02
2019-05-20T09:48:25.012Z,64.52
2019-05-20T09:49:21.663Z,64.83
2019-05-20T09:50:21.587Z,64.52
2019-05-20T09:51:21.595Z,65.33
2019-05-20T09:52:21.558Z,64.89
2019-05-20T09:53:21.559Z,63.09
2019-05-20T09:54:21.551Z,62.89
2019-05-20T09:55:21.540Z,65.49
2019-05-20T09:56:21.554Z,64.56
2019-05-20T09:57:21.494Z,62.56
2019-05-20T09:58:21.546Z,62.37
2019-05-20T09:59:21.475Z,63.36
2019-05-20T10:00:21.467Z,60.16
2019-05-20T10:01:21.472Z,60.96
2019-05-20T10:02:21.472Z,62.93
2019-05-20T10:03:21.447Z,63.23
2019-05-20T10:04:21.461Z,60.24
2019-05-20T10:05:21.434Z,62.04
2019-05-20T10:06:21.415Z,58.47
2019-05-20T10:07:21.415Z,58.44
2019-05-20T10:08:36.263Z,60.24
2019-05-20T10:09:22.373Z,60.74
2019-05-20T10:10:21.359Z,60.14
2019-05-20T10:11:21.347Z,63.13
2019-05-20T10:12:21.366Z,60.53
2019-05-20T10:13:21.316Z,61.16
2019-05-20T10:14:21.310Z,60.86
2019-05-20T10:15:21.313Z,61.36
2019-05-20T10:16:21.290Z,62.56
2019-05-20T10:17:21.318Z,60.36
2019-05-20T10:18:35.926Z,61.36
2019-05-20T10:19:22.253Z,60.49
2019-05-20T10:20:21.245Z,59.89
2019-05-20T10:21:21.229Z,61.49
2019-05-20T10:22:21.222Z,63.59
2019-05-20T10:23:21.247Z,63.19
2019-05-20T10:24:21.230Z,62.70
2019-05-20T10:25:21.211Z,64.59
2019-05-20T10:26:21.189Z,63.56
2019-05-20T10:27:21.179Z,63.17
2019-05-20T10:28:21.169Z,60.96
2019-05-20T10:29:21.165Z,60.57
2019-05-20T10:30:21.156Z,62.96
2019-05-20T10:31:21.130Z,60.99
2019-05-20T10:32:21.127Z,62.96
2019-05-20T10:33:21.117Z,62.66
2019-05-20T10:34:21.088Z,62.70
2019-05-20T10:35:21.080Z,61.87
2019-05-20T10:36:21.077Z,62.39
2019-05-20T10:37:21.067Z,61.99
2019-05-20T10:38:21.223Z,63.49
2019-05-20T10:39:21.039Z,62.59
2019-05-20T10:40:21.042Z,62.66
2019-05-20T10:41:21.068Z,63.36
2019-05-20T10:42:21.036Z,62.70
2019-05-20T10:43:21.018Z,62.66
2019-05-20T10:44:20.982Z,63.46
2019-05-20T10:45:20.970Z,62.37
2019-05-20T10:46:20.989Z,62.19
2019-05-20T10:47:21.140Z,61.99
2019-05-20T10:48:20.970Z,59.99
2019-05-20T10:49:20.953Z,61.69
2019-05-20T10:50:20.920Z,61.69
2019-05-20T10:51:20.905Z,62.19
2019-05-20T10:52:20.895Z,63.12
2019-05-20T10:53:20.899Z,60.72
2019-05-20T10:54:20.884Z,61.52
2019-05-20T10:55:20.874Z,62.72
2019-05-20T10:56:20.854Z,62.75
2019-05-20T10:57:20.844Z,62.85
2019-05-20T10:58:20.844Z,62.95
2019-05-20T10:59:20.812Z,63.75
2019-05-20T11:00:20.881Z,64.15
2019-05-20T11:01:20.793Z,63.39
2019-05-20T11:02:20.792Z,63.28
2019-05-20T11:03:20.799Z,64.78
2019-05-20T11:04:20.778Z,63.28
2019-05-20T11:05:20.746Z,64.81
2019-05-20T11:06:20.762Z,67.12
2019-05-20T11:07:20.755Z,66.42
2019-05-20T11:08:20.731Z,69.32
2019-05-20T11:09:20.709Z,70.16
2019-05-20T11:10:20.694Z,69.06
2019-05-20T11:11:20.681Z,69.76
2019-05-20T11:12:20.701Z,70.66
2019-05-20T11:13:20.716Z,72.06
2019-05-20T11:14:20.671Z,71.70
2019-05-20T11:15:20.652Z,71.50
2019-05-20T11:16:20.623Z,72.60
2019-05-20T11:17:20.622Z,73.00
2019-05-20T11:18:20.632Z,73.33
2019-05-20T11:19:20.617Z,73.03
2019-05-20T11:20:20.582Z,70.63
2019-05-20T11:21:20.588Z,71.83
2019-05-20T11:22:20.564Z,71.63
2019-05-20T11:23:20.557Z,71.97
2019-05-20T11:24:20.569Z,70.86
2019-05-20T11:25:20.538Z,70.96
2019-05-20T11:26:20.527Z,71.47
2019-05-20T11:27:20.540Z,72.77
2019-05-20T11:28:20.499Z,72.27
2019-05-20T11:29:20.521Z,72.30
2019-05-20T11:30:20.478Z,72.71
2019-05-20T11:31:20.467Z,72.40
2019-05-20T11:32:20.465Z,72.13
2019-05-20T11:33:20.464Z,73.04
2019-05-20T11:34:20.448Z,72.33
2019-05-20T11:35:20.454Z,72.64
2019-05-20T11:36:20.412Z,72.13
2019-05-20T11:37:20.399Z,70.43
2019-05-20T11:38:20.403Z,71.16
2019-05-20T11:39:32.584Z,70.76
2019-05-20T11:40:21.382Z,72.27
2019-05-20T11:41:20.365Z,71.56
2019-05-20T11:42:20.343Z,71.77
2019-05-20T11:43:20.348Z,72.27
2019-05-20T11:44:20.352Z,71.56
2019-05-20T11:45:20.461Z,71.56
2019-05-20T11:46:20.309Z,71.16
2019-05-20T11:47:20.328Z,70.86
2019-05-20T11:48:20.305Z,70.70
2019-05-20T11:49:20.306Z,71.00
2019-05-20T11:50:20.276Z,70.89
2019-05-20T11:51:20.263Z,70.89
2019-05-20T11:52:20.251Z,71.30
2019-05-20T11:53:20.230Z,71.50
2019-05-20T11:54:20.225Z,71.90
2019-05-20T11:55:20.249Z,72.91
2019-05-20T11:56:20.189Z,72.71
2019-05-20T11:57:20.198Z,72.00
2019-05-20T11:58:20.171Z,72.24
2019-05-20T11:59:20.209Z,72.14
2019-05-20T12:00:20.172Z,72.24
2019-05-20T12:01:20.146Z,72.24
2019-05-20T12:02:20.127Z,73.55
2019-05-20T12:03:20.133Z,72.74
2019-05-20T12:04:20.121Z,73.35
2019-05-20T12:05:20.119Z,72.84
2019-05-20T12:06:20.083Z,73.14
2019-05-20T12:07:20.078Z,73.35
2019-05-20T12:08:20.071Z,72.54
2019-05-20T12:09:20.066Z,73.14
2019-05-20T12:10:20.058Z,73.48
2019-05-20T12:11:20.044Z,73.38
2019-05-20T12:12:20.035Z,73.38
2019-05-20T12:13:20.000Z,72.94
2019-05-20T12:14:20.002Z,73.98
2019-05-20T12:15:20.039Z,72.88
2019-05-20T12:16:19.974Z,74.18
2019-05-20T12:17:19.959Z,72.88
2019-05-20T12:18:19.952Z,73.28
2019-05-20T12:19:19.943Z,73.88
2019-05-20T12:20:19.931Z,73.68
2019-05-20T12:21:19.942Z,73.98
2019-05-20T12:22:19.913Z,74.08
2019-05-20T12:23:19.894Z,74.38
2019-05-20T12:24:19.899Z,74.79
2019-05-20T12:25:19.876Z,74.99
2019-05-20T12:26:22.624Z,74.29
2019-05-20T12:27:19.877Z,74.49
2019-05-20T12:28:19.864Z,74.69
2019-05-20T12:29:19.838Z,74.38
2019-05-20T12:30:19.845Z,73.48
2019-05-20T12:31:19.832Z,74.08
2019-05-20T12:32:19.814Z,74.32
2019-05-20T12:33:20.091Z,73.88
2019-05-20T12:34:19.776Z,74.49
2019-05-20T12:35:19.792Z,74.79
2019-05-20T12:36:19.794Z,74.93
2019-05-20T12:37:19.749Z,74.62
2019-05-20T12:38:19.745Z,73.92
2019-05-20T12:39:19.720Z,74.32
2019-05-20T12:40:19.729Z,74.82
2019-05-20T12:41:19.736Z,74.86
2019-05-20T12:42:19.728Z,75.06
2019-05-20T12:43:19.679Z,74.86
2019-05-20T12:44:19.668Z,75.06
2019-05-20T12:45:19.667Z,75.67
2019-05-20T12:46:19.722Z,76.07
2019-05-20T12:47:19.645Z,76.27
2019-05-20T12:48:19.638Z,76.20
2019-05-20T12:49:19.668Z,76.27
2019-05-20T12:50:19.615Z,76.40
2019-05-20T12:51:19.591Z,76.00
2019-05-20T12:52:19.596Z,76.00